sensor_id;sensor_type;location;lat;lon;timestamp;temperature;humidity
13052;DHT22;6592;47.484;9.726;2023-02-01T00:01:23;3.60;99.90
13052;DHT22;6592;47.484;9.726;2023-02-01T00:03:51;3.60;99.90
13052;DHT22;6592;47.484;9.726;2023-02-01T00:06:19;3.60;99.90
13052;DHT22;6592;47.484;9.726;2023-02-01T00:08:47;3.60;99.90
13052;DHT22;6592;47.484;9.726;2023-02-01T00:11:16;3.60;99.90
13052;DHT22;6592;47.484;9.726;2023-02-01T00:13:44;3.60;99.90
13052;DHT22;6592;47.484;9.726;2023-02-01T00:16:16;3.60;99.90
13052;DHT22;6592;47.484;9.726;2023-02-01T00:18:45;3.50;99.90
13052;DHT22;6592;47.484;9.726;2023-02-01T00:21:14;3.50;99.90
13052;DHT22;6592;47.484;9.726;2023-02-01T00:23:42;3.50;99.90
13052;DHT22;6592;47.484;9.726;2023-02-01T00:26:14;3.50;99.90
13052;DHT22;6592;47.484;9.726;2023-02-01T00:28:43;3.50;99.90
13052;DHT22;6592;47.484;9.726;2023-02-01T00:31:13;3.60;99.90
13052;DHT22;6592;47.484;9.726;2023-02-01T00:33:41;3.60;99.90
13052;DHT22;6592;47.484;9.726;2023-02-01T00:36:10;3.60;99.90
13052;DHT22;6592;47.484;9.726;2023-02-01T00:38:39;3.60;99.90
13052;DHT22;6592;47.484;9.726;2023-02-01T00:41:10;3.50;99.90
13052;DHT22;6592;47.484;9.726;2023-02-01T00:43:38;3.50;99.90
13052;DHT22;6592;47.484;9.726;2023-02-01T00:46:07;3.60;99.90
13052;DHT22;6592;47.484;9.726;2023-02-01T00:48:37;3.60;99.90
13052;DHT22;6592;47.484;9.726;2023-02-01T00:51:07;3.70;99.90
13052;DHT22;6592;47.484;9.726;2023-02-01T00:53:36;3.70;99.90
13052;DHT22;6592;47.484;9.726;2023-02-01T00:56:05;3.60;99.90
13052;DHT22;6592;47.484;9.726;2023-02-01T00:58:34;3.70;99.90
13052;DHT22;6592;47.484;9.726;2023-02-01T01:01:04;3.70;99.90
13052;DHT22;6592;47.484;9.726;2023-02-01T01:03:35;3.70;99.90
13052;DHT22;6592;47.484;9.726;2023-02-01T01:06:07;3.80;99.90
13052;DHT22;6592;47.484;9.726;2023-02-01T01:08:36;3.80;99.90
13052;DHT22;6592;47.484;9.726;2023-02-01T01:11:06;3.80;99.90
13052;DHT22;6592;47.484;9.726;2023-02-01T01:13:35;3.80;99.90
13052;DHT22;6592;47.484;9.726;2023-02-01T01:16:04;3.90;99.90
13052;DHT22;6592;47.484;9.726;2023-02-01T01:18:34;3.90;99.90
13052;DHT22;6592;47.484;9.726;2023-02-01T01:21:06;3.90;99.90
13052;DHT22;6592;47.484;9.726;2023-02-01T01:23:35;3.90;99.90
13052;DHT22;6592;47.484;9.726;2023-02-01T01:26:05;3.90;99.90
13052;DHT22;6592;47.484;9.726;2023-02-01T01:28:34;3.90;99.90
13052;DHT22;6592;47.484;9.726;2023-02-01T01:31:03;3.90;99.90
13052;DHT22;6592;47.484;9.726;2023-02-01T01:33:31;3.90;99.90
13052;DHT22;6592;47.484;9.726;2023-02-01T01:36:00;4.00;99.90
13052;DHT22;6592;47.484;9.726;2023-02-01T01:38:29;3.90;99.90
13052;DHT22;6592;47.484;9.726;2023-02-01T01:40:57;3.90;99.90
13052;DHT22;6592;47.484;9.726;2023-02-01T01:46:09;3.90;99.90
13052;DHT22;6592;47.484;9.726;2023-02-01T01:48:37;3.90;99.90
13052;DHT22;6592;47.484;9.726;2023-02-01T01:51:09;3.90;99.90
13052;DHT22;6592;47.484;9.726;2023-02-01T01:53:44;3.90;99.90
13052;DHT22;6592;47.484;9.726;2023-02-01T01:56:13;4.00;99.90
13052;DHT22;6592;47.484;9.726;2023-02-01T01:58:42;3.90;99.90
13052;DHT22;6592;47.484;9.726;2023-02-01T02:01:11;3.90;99.90
13052;DHT22;6592;47.484;9.726;2023-02-01T02:03:41;3.90;99.90
13052;DHT22;6592;47.484;9.726;2023-02-01T02:06:15;3.90;99.90
13052;DHT22;6592;47.484;9.726;2023-02-01T02:08:45;3.90;99.90
13052;DHT22;6592;47.484;9.726;2023-02-01T02:11:16;3.90;99.90
13052;DHT22;6592;47.484;9.726;2023-02-01T02:13:48;3.80;99.90
13052;DHT22;6592;47.484;9.726;2023-02-01T02:16:25;3.80;99.90
13052;DHT22;6592;47.484;9.726;2023-02-01T02:19:20;3.80;99.90
13052;DHT22;6592;47.484;9.726;2023-02-01T02:28:21;3.90;99.90
13052;DHT22;6592;47.484;9.726;2023-02-01T02:34:06;3.80;99.90
13052;DHT22;6592;47.484;9.726;2023-02-01T02:36:42;3.80;99.90
13052;DHT22;6592;47.484;9.726;2023-02-01T02:39:18;3.80;99.90
13052;DHT22;6592;47.484;9.726;2023-02-01T02:41:52;3.70;99.90
13052;DHT22;6592;47.484;9.726;2023-02-01T02:44:45;3.80;99.90
13052;DHT22;6592;47.484;9.726;2023-02-01T02:47:36;3.80;99.90
13052;DHT22;6592;47.484;9.726;2023-02-01T02:50:15;3.80;99.90
13052;DHT22;6592;47.484;9.726;2023-02-01T02:53:07;3.80;99.90
13052;DHT22;6592;47.484;9.726;2023-02-01T02:55:55;3.90;99.90
13052;DHT22;6592;47.484;9.726;2023-02-01T02:58:43;3.90;99.90
13052;DHT22;6592;47.484;9.726;2023-02-01T03:01:32;3.90;99.90
13052;DHT22;6592;47.484;9.726;2023-02-01T03:04:17;4.00;99.90
13052;DHT22;6592;47.484;9.726;2023-02-01T03:06:48;4.00;99.90
13052;DHT22;6592;47.484;9.726;2023-02-01T03:09:21;4.00;99.90
13052;DHT22;6592;47.484;9.726;2023-02-01T03:11:54;4.00;99.90
13052;DHT22;6592;47.484;9.726;2023-02-01T03:14:45;4.00;99.90
13052;DHT22;6592;47.484;9.726;2023-02-01T03:17:17;4.00;99.90
13052;DHT22;6592;47.484;9.726;2023-02-01T03:19:48;4.00;99.90
13052;DHT22;6592;47.484;9.726;2023-02-01T03:22:22;4.10;99.90
13052;DHT22;6592;47.484;9.726;2023-02-01T03:24:54;4.10;99.90
13052;DHT22;6592;47.484;9.726;2023-02-01T03:27:28;4.10;99.90
13052;DHT22;6592;47.484;9.726;2023-02-01T03:30:02;4.10;99.90
13052;DHT22;6592;47.484;9.726;2023-02-01T03:32:33;4.10;99.90
13052;DHT22;6592;47.484;9.726;2023-02-01T03:35:27;4.10;99.90
13052;DHT22;6592;47.484;9.726;2023-02-01T03:38:02;4.10;99.90
13052;DHT22;6592;47.484;9.726;2023-02-01T03:40:34;4.10;99.90
13052;DHT22;6592;47.484;9.726;2023-02-01T03:43:05;4.10;99.90
13052;DHT22;6592;47.484;9.726;2023-02-01T03:45:38;4.10;99.90
13052;DHT22;6592;47.484;9.726;2023-02-01T03:48:10;4.10;99.90
13052;DHT22;6592;47.484;9.726;2023-02-01T03:50:47;4.10;99.90
13052;DHT22;6592;47.484;9.726;2023-02-01T03:53:20;4.10;99.90
13052;DHT22;6592;47.484;9.726;2023-02-01T03:55:50;4.00;99.90
13052;DHT22;6592;47.484;9.726;2023-02-01T03:58:21;3.90;99.90
13052;DHT22;6592;47.484;9.726;2023-02-01T04:00:52;3.90;99.90
13052;DHT22;6592;47.484;9.726;2023-02-01T04:03:21;3.90;99.90
13052;DHT22;6592;47.484;9.726;2023-02-01T04:05:50;3.90;99.90
13052;DHT22;6592;47.484;9.726;2023-02-01T04:08:20;3.90;99.90
13052;DHT22;6592;47.484;9.726;2023-02-01T04:10:49;3.90;99.90
13052;DHT22;6592;47.484;9.726;2023-02-01T04:13:17;3.90;99.90
13052;DHT22;6592;47.484;9.726;2023-02-01T04:15:47;3.90;99.90
13052;DHT22;6592;47.484;9.726;2023-02-01T04:18:16;3.90;99.90
13052;DHT22;6592;47.484;9.726;2023-02-01T04:20:44;3.90;99.90
13052;DHT22;6592;47.484;9.726;2023-02-01T04:23:12;3.90;99.90
13052;DHT22;6592;47.484;9.726;2023-02-01T04:25:44;3.90;99.90
13052;DHT22;6592;47.484;9.726;2023-02-01T04:28:12;4.00;99.90
13052;DHT22;6592;47.484;9.726;2023-02-01T04:30:40;4.00;99.90
13052;DHT22;6592;47.484;9.726;2023-02-01T04:33:09;4.10;99.90
13052;DHT22;6592;47.484;9.726;2023-02-01T04:35:40;4.10;99.90
13052;DHT22;6592;47.484;9.726;2023-02-01T04:38:09;4.10;99.90
13052;DHT22;6592;47.484;9.726;2023-02-01T04:40:37;4.20;99.90
13052;DHT22;6592;47.484;9.726;2023-02-01T04:43:07;4.20;99.90
13052;DHT22;6592;47.484;9.726;2023-02-01T04:45:35;4.10;99.90
13052;DHT22;6592;47.484;9.726;2023-02-01T04:48:04;4.00;99.90
13052;DHT22;6592;47.484;9.726;2023-02-01T04:50:32;4.00;99.90
13052;DHT22;6592;47.484;9.726;2023-02-01T04:53:00;4.00;99.90
13052;DHT22;6592;47.484;9.726;2023-02-01T04:55:28;4.10;99.90
13052;DHT22;6592;47.484;9.726;2023-02-01T04:57:57;4.10;99.90
13052;DHT22;6592;47.484;9.726;2023-02-01T05:00:27;4.10;99.90
13052;DHT22;6592;47.484;9.726;2023-02-01T05:02:55;4.00;99.90
13052;DHT22;6592;47.484;9.726;2023-02-01T05:05:24;4.10;99.90
13052;DHT22;6592;47.484;9.726;2023-02-01T05:07:52;4.10;99.90
13052;DHT22;6592;47.484;9.726;2023-02-01T05:10:20;4.10;99.90
13052;DHT22;6592;47.484;9.726;2023-02-01T05:12:49;4.00;99.90
13052;DHT22;6592;47.484;9.726;2023-02-01T05:15:36;4.00;99.90
13052;DHT22;6592;47.484;9.726;2023-02-01T05:18:04;4.00;99.90
13052;DHT22;6592;47.484;9.726;2023-02-01T05:20:32;4.00;99.90
13052;DHT22;6592;47.484;9.726;2023-02-01T05:23:00;3.90;99.90
13052;DHT22;6592;47.484;9.726;2023-02-01T05:25:29;4.00;99.90
13052;DHT22;6592;47.484;9.726;2023-02-01T05:27:57;4.00;99.90
13052;DHT22;6592;47.484;9.726;2023-02-01T05:30:25;4.10;99.90
13052;DHT22;6592;47.484;9.726;2023-02-01T05:32:55;4.10;99.90
13052;DHT22;6592;47.484;9.726;2023-02-01T05:35:23;4.00;99.90
13052;DHT22;6592;47.484;9.726;2023-02-01T05:37:51;4.00;99.90
13052;DHT22;6592;47.484;9.726;2023-02-01T05:40:20;4.10;99.90
13052;DHT22;6592;47.484;9.726;2023-02-01T05:42:48;3.90;99.90
13052;DHT22;6592;47.484;9.726;2023-02-01T05:45:16;3.90;99.90
13052;DHT22;6592;47.484;9.726;2023-02-01T05:47:45;3.80;99.90
13052;DHT22;6592;47.484;9.726;2023-02-01T05:50:15;3.70;99.90
13052;DHT22;6592;47.484;9.726;2023-02-01T05:52:44;3.60;99.90
13052;DHT22;6592;47.484;9.726;2023-02-01T05:55:12;3.60;99.90
13052;DHT22;6592;47.484;9.726;2023-02-01T05:57:40;3.60;99.90
13052;DHT22;6592;47.484;9.726;2023-02-01T06:00:09;3.50;99.90
13052;DHT22;6592;47.484;9.726;2023-02-01T06:02:38;3.50;99.90
13052;DHT22;6592;47.484;9.726;2023-02-01T06:05:08;3.50;99.90
13052;DHT22;6592;47.484;9.726;2023-02-01T06:07:37;3.50;99.90
13052;DHT22;6592;47.484;9.726;2023-02-01T06:10:06;3.50;99.90
13052;DHT22;6592;47.484;9.726;2023-02-01T06:12:35;3.60;99.90
13052;DHT22;6592;47.484;9.726;2023-02-01T06:15:04;3.60;99.90
13052;DHT22;6592;47.484;9.726;2023-02-01T06:17:32;3.60;99.90
13052;DHT22;6592;47.484;9.726;2023-02-01T06:20:00;3.50;99.90
13052;DHT22;6592;47.484;9.726;2023-02-01T06:22:28;3.50;99.90
13052;DHT22;6592;47.484;9.726;2023-02-01T06:24:58;3.50;99.90
13052;DHT22;6592;47.484;9.726;2023-02-01T06:27:26;3.50;99.90
13052;DHT22;6592;47.484;9.726;2023-02-01T06:29:55;3.50;99.90
13052;DHT22;6592;47.484;9.726;2023-02-01T06:32:23;3.40;99.90
13052;DHT22;6592;47.484;9.726;2023-02-01T06:34:51;3.40;99.90
13052;DHT22;6592;47.484;9.726;2023-02-01T06:37:20;3.30;99.90
13052;DHT22;6592;47.484;9.726;2023-02-01T06:39:48;3.30;99.90
13052;DHT22;6592;47.484;9.726;2023-02-01T06:42:18;3.20;99.90
13052;DHT22;6592;47.484;9.726;2023-02-01T06:44:46;3.20;99.90
13052;DHT22;6592;47.484;9.726;2023-02-01T06:47:14;3.30;99.90
13052;DHT22;6592;47.484;9.726;2023-02-01T06:49:42;3.30;99.90
13052;DHT22;6592;47.484;9.726;2023-02-01T06:52:10;3.30;99.90
13052;DHT22;6592;47.484;9.726;2023-02-01T06:54:38;3.30;99.90
13052;DHT22;6592;47.484;9.726;2023-02-01T06:57:07;3.30;99.90
13052;DHT22;6592;47.484;9.726;2023-02-01T06:59:36;3.30;99.90
13052;DHT22;6592;47.484;9.726;2023-02-01T07:02:05;3.30;99.90
13052;DHT22;6592;47.484;9.726;2023-02-01T07:04:33;3.40;99.90
13052;DHT22;6592;47.484;9.726;2023-02-01T07:07:02;3.40;99.90
13052;DHT22;6592;47.484;9.726;2023-02-01T07:09:30;3.40;99.90
13052;DHT22;6592;47.484;9.726;2023-02-01T07:11:58;3.40;99.90
13052;DHT22;6592;47.484;9.726;2023-02-01T07:14:26;3.40;99.90
13052;DHT22;6592;47.484;9.726;2023-02-01T07:16:56;3.50;99.90
13052;DHT22;6592;47.484;9.726;2023-02-01T07:19:24;3.50;99.90
13052;DHT22;6592;47.484;9.726;2023-02-01T07:21:52;3.60;99.90
13052;DHT22;6592;47.484;9.726;2023-02-01T07:24:21;3.60;99.90
13052;DHT22;6592;47.484;9.726;2023-02-01T07:26:49;3.60;99.90
13052;DHT22;6592;47.484;9.726;2023-02-01T07:29:18;3.60;99.90
13052;DHT22;6592;47.484;9.726;2023-02-01T07:31:46;3.60;99.90
13052;DHT22;6592;47.484;9.726;2023-02-01T07:34:15;3.70;99.90
13052;DHT22;6592;47.484;9.726;2023-02-01T07:36:44;3.60;99.90
13052;DHT22;6592;47.484;9.726;2023-02-01T07:39:12;3.70;99.90
13052;DHT22;6592;47.484;9.726;2023-02-01T07:41:40;3.70;99.90
13052;DHT22;6592;47.484;9.726;2023-02-01T07:44:09;3.70;99.90
13052;DHT22;6592;47.484;9.726;2023-02-01T07:46:37;3.70;99.90
13052;DHT22;6592;47.484;9.726;2023-02-01T07:49:06;3.70;99.90
13052;DHT22;6592;47.484;9.726;2023-02-01T07:51:35;3.60;99.90
13052;DHT22;6592;47.484;9.726;2023-02-01T07:54:04;3.60;99.90
13052;DHT22;6592;47.484;9.726;2023-02-01T07:56:32;3.50;99.90
13052;DHT22;6592;47.484;9.726;2023-02-01T07:59:00;3.60;99.90
13052;DHT22;6592;47.484;9.726;2023-02-01T08:01:29;3.50;99.90
13052;DHT22;6592;47.484;9.726;2023-02-01T08:03:58;3.50;99.90
13052;DHT22;6592;47.484;9.726;2023-02-01T08:06:28;3.50;99.90
13052;DHT22;6592;47.484;9.726;2023-02-01T08:09:06;3.50;99.90
13052;DHT22;6592;47.484;9.726;2023-02-01T08:11:34;3.50;99.90
13052;DHT22;6592;47.484;9.726;2023-02-01T08:14:05;3.40;99.90
13052;DHT22;6592;47.484;9.726;2023-02-01T08:16:34;3.40;99.90
13052;DHT22;6592;47.484;9.726;2023-02-01T08:19:04;3.40;99.90
13052;DHT22;6592;47.484;9.726;2023-02-01T08:21:32;3.40;99.90
13052;DHT22;6592;47.484;9.726;2023-02-01T08:24:06;3.50;99.90
13052;DHT22;6592;47.484;9.726;2023-02-01T08:26:34;3.40;99.90
13052;DHT22;6592;47.484;9.726;2023-02-01T08:29:05;3.50;99.90
13052;DHT22;6592;47.484;9.726;2023-02-01T08:31:33;3.50;99.90
13052;DHT22;6592;47.484;9.726;2023-02-01T08:34:02;3.50;99.90
13052;DHT22;6592;47.484;9.726;2023-02-01T08:36:32;3.50;99.90
13052;DHT22;6592;47.484;9.726;2023-02-01T08:39:00;3.60;99.90
13052;DHT22;6592;47.484;9.726;2023-02-01T08:41:33;3.60;99.90
13052;DHT22;6592;47.484;9.726;2023-02-01T08:44:02;3.60;99.90
13052;DHT22;6592;47.484;9.726;2023-02-01T08:46:30;3.60;99.90
13052;DHT22;6592;47.484;9.726;2023-02-01T08:48:59;3.70;99.90
13052;DHT22;6592;47.484;9.726;2023-02-01T08:51:27;3.70;99.90
13052;DHT22;6592;47.484;9.726;2023-02-01T08:53:55;3.80;99.90
13052;DHT22;6592;47.484;9.726;2023-02-01T08:56:24;3.90;99.90
13052;DHT22;6592;47.484;9.726;2023-02-01T08:58:53;3.90;99.90
13052;DHT22;6592;47.484;9.726;2023-02-01T09:01:22;3.80;99.90
13052;DHT22;6592;47.484;9.726;2023-02-01T09:03:50;3.90;99.90
13052;DHT22;6592;47.484;9.726;2023-02-01T09:06:18;3.90;99.90
13052;DHT22;6592;47.484;9.726;2023-02-01T09:08:47;4.00;99.90
13052;DHT22;6592;47.484;9.726;2023-02-01T09:11:16;4.10;99.90
13052;DHT22;6592;47.484;9.726;2023-02-01T09:13:47;4.10;99.90
13052;DHT22;6592;47.484;9.726;2023-02-01T09:16:17;4.10;99.90
13052;DHT22;6592;47.484;9.726;2023-02-01T09:18:45;4.10;99.90
13052;DHT22;6592;47.484;9.726;2023-02-01T09:21:33;4.20;99.90
13052;DHT22;6592;47.484;9.726;2023-02-01T09:24:02;4.30;99.90
13052;DHT22;6592;47.484;9.726;2023-02-01T09:26:30;4.30;99.90
13052;DHT22;6592;47.484;9.726;2023-02-01T09:28:59;4.30;99.90
13052;DHT22;6592;47.484;9.726;2023-02-01T09:31:29;4.30;99.90
13052;DHT22;6592;47.484;9.726;2023-02-01T09:33:58;4.30;99.90
13052;DHT22;6592;47.484;9.726;2023-02-01T09:36:26;4.40;99.90
13052;DHT22;6592;47.484;9.726;2023-02-01T09:38:57;4.50;99.90
13052;DHT22;6592;47.484;9.726;2023-02-01T09:41:34;4.50;99.90
13052;DHT22;6592;47.484;9.726;2023-02-01T09:44:13;4.60;99.90
13052;DHT22;6592;47.484;9.726;2023-02-01T09:46:46;4.70;99.90
13052;DHT22;6592;47.484;9.726;2023-02-01T09:49:18;4.70;99.90
13052;DHT22;6592;47.484;9.726;2023-02-01T09:51:49;4.70;99.90
13052;DHT22;6592;47.484;9.726;2023-02-01T09:54:20;4.60;99.90
13052;DHT22;6592;47.484;9.726;2023-02-01T09:56:53;4.50;99.90
13052;DHT22;6592;47.484;9.726;2023-02-01T09:59:33;4.50;99.90
13052;DHT22;6592;47.484;9.726;2023-02-01T10:02:13;4.40;99.90
13052;DHT22;6592;47.484;9.726;2023-02-01T10:04:42;4.40;99.90
13052;DHT22;6592;47.484;9.726;2023-02-01T10:07:19;4.40;99.90
13052;DHT22;6592;47.484;9.726;2023-02-01T10:09:58;4.50;99.90
13052;DHT22;6592;47.484;9.726;2023-02-01T10:12:49;4.60;99.90
13052;DHT22;6592;47.484;9.726;2023-02-01T10:15:30;4.60;99.90
13052;DHT22;6592;47.484;9.726;2023-02-01T10:18:23;4.70;99.90
13052;DHT22;6592;47.484;9.726;2023-02-01T10:21:00;4.70;99.90
13052;DHT22;6592;47.484;9.726;2023-02-01T10:23:58;4.80;99.90
13052;DHT22;6592;47.484;9.726;2023-02-01T10:26:46;4.90;99.90
13052;DHT22;6592;47.484;9.726;2023-02-01T10:29:18;4.90;99.90
13052;DHT22;6592;47.484;9.726;2023-02-01T10:31:47;5.00;99.90
13052;DHT22;6592;47.484;9.726;2023-02-01T10:34:19;5.00;99.90
13052;DHT22;6592;47.484;9.726;2023-02-01T10:37:01;5.10;99.90
13052;DHT22;6592;47.484;9.726;2023-02-01T10:39:32;5.10;99.90
13052;DHT22;6592;47.484;9.726;2023-02-01T10:42:00;5.20;99.90
13052;DHT22;6592;47.484;9.726;2023-02-01T10:44:30;5.30;99.90
13052;DHT22;6592;47.484;9.726;2023-02-01T10:46:59;5.40;99.90
13052;DHT22;6592;47.484;9.726;2023-02-01T10:49:33;5.50;99.90
13052;DHT22;6592;47.484;9.726;2023-02-01T10:52:12;5.50;99.90
13052;DHT22;6592;47.484;9.726;2023-02-01T10:54:40;5.60;99.90
13052;DHT22;6592;47.484;9.726;2023-02-01T10:57:10;5.70;99.90
13052;DHT22;6592;47.484;9.726;2023-02-01T10:59:38;5.80;99.90
13052;DHT22;6592;47.484;9.726;2023-02-01T11:02:19;6.00;99.90
13052;DHT22;6592;47.484;9.726;2023-02-01T11:04:50;6.10;99.90
13052;DHT22;6592;47.484;9.726;2023-02-01T11:07:23;6.20;99.90
13052;DHT22;6592;47.484;9.726;2023-02-01T11:09:54;6.30;99.90
13052;DHT22;6592;47.484;9.726;2023-02-01T11:12:28;6.40;99.90
13052;DHT22;6592;47.484;9.726;2023-02-01T11:15:03;6.40;99.90
13052;DHT22;6592;47.484;9.726;2023-02-01T11:17:42;6.50;99.90
13052;DHT22;6592;47.484;9.726;2023-02-01T11:20:16;6.70;99.90
13052;DHT22;6592;47.484;9.726;2023-02-01T11:22:46;6.90;99.90
13052;DHT22;6592;47.484;9.726;2023-02-01T11:25:16;7.00;99.90
13052;DHT22;6592;47.484;9.726;2023-02-01T11:27:45;7.00;99.90
13052;DHT22;6592;47.484;9.726;2023-02-01T11:30:30;7.00;99.90
13052;DHT22;6592;47.484;9.726;2023-02-01T11:33:00;7.00;99.90
13052;DHT22;6592;47.484;9.726;2023-02-01T11:35:37;7.00;99.90
13052;DHT22;6592;47.484;9.726;2023-02-01T11:38:13;6.90;99.90
13052;DHT22;6592;47.484;9.726;2023-02-01T11:40:44;6.90;99.90
13052;DHT22;6592;47.484;9.726;2023-02-01T11:43:17;6.80;99.90
13052;DHT22;6592;47.484;9.726;2023-02-01T11:45:54;6.90;99.90
13052;DHT22;6592;47.484;9.726;2023-02-01T11:48:24;6.90;99.90
13052;DHT22;6592;47.484;9.726;2023-02-01T11:51:14;6.90;99.90
13052;DHT22;6592;47.484;9.726;2023-02-01T11:54:01;6.90;99.90
13052;DHT22;6592;47.484;9.726;2023-02-01T11:56:33;6.90;99.90
13052;DHT22;6592;47.484;9.726;2023-02-01T11:59:21;6.70;99.90
13052;DHT22;6592;47.484;9.726;2023-02-01T12:02:15;6.60;99.90
13052;DHT22;6592;47.484;9.726;2023-02-01T12:05:03;6.60;99.90
13052;DHT22;6592;47.484;9.726;2023-02-01T12:07:54;6.50;99.90
13052;DHT22;6592;47.484;9.726;2023-02-01T12:10:31;6.50;99.90
13052;DHT22;6592;47.484;9.726;2023-02-01T12:13:14;6.60;99.90
13052;DHT22;6592;47.484;9.726;2023-02-01T12:15:59;6.60;99.90
13052;DHT22;6592;47.484;9.726;2023-02-01T12:18:55;6.60;99.90
13052;DHT22;6592;47.484;9.726;2023-02-01T12:24:58;6.40;99.90
13052;DHT22;6592;47.484;9.726;2023-02-01T12:27:52;6.40;99.90
13052;DHT22;6592;47.484;9.726;2023-02-01T12:30:58;6.50;99.90
13052;DHT22;6592;47.484;9.726;2023-02-01T12:33:40;6.50;99.90
13052;DHT22;6592;47.484;9.726;2023-02-01T12:36:16;6.60;99.90
13052;DHT22;6592;47.484;9.726;2023-02-01T12:38:51;6.50;99.90
13052;DHT22;6592;47.484;9.726;2023-02-01T12:41:47;6.40;99.90
13052;DHT22;6592;47.484;9.726;2023-02-01T12:44:28;6.40;99.90
13052;DHT22;6592;47.484;9.726;2023-02-01T12:47:03;6.50;99.90
13052;DHT22;6592;47.484;9.726;2023-02-01T12:49:42;6.40;99.90
13052;DHT22;6592;47.484;9.726;2023-02-01T12:52:16;6.40;99.90
13052;DHT22;6592;47.484;9.726;2023-02-01T12:54:49;6.50;99.90
13052;DHT22;6592;47.484;9.726;2023-02-01T12:57:24;6.50;99.90
13052;DHT22;6592;47.484;9.726;2023-02-01T12:59:59;6.50;99.90
13052;DHT22;6592;47.484;9.726;2023-02-01T13:02:35;6.60;99.90
13052;DHT22;6592;47.484;9.726;2023-02-01T13:05:17;6.60;99.90
13052;DHT22;6592;47.484;9.726;2023-02-01T13:07:49;6.70;99.90
13052;DHT22;6592;47.484;9.726;2023-02-01T13:10:22;6.70;99.90
13052;DHT22;6592;47.484;9.726;2023-02-01T13:13:09;6.70;99.90
13052;DHT22;6592;47.484;9.726;2023-02-01T13:15:41;6.70;99.90
13052;DHT22;6592;47.484;9.726;2023-02-01T13:18:18;6.70;99.90
13052;DHT22;6592;47.484;9.726;2023-02-01T13:20:54;6.80;99.90
13052;DHT22;6592;47.484;9.726;2023-02-01T13:23:26;6.90;99.90
13052;DHT22;6592;47.484;9.726;2023-02-01T13:25:56;6.90;99.90
13052;DHT22;6592;47.484;9.726;2023-02-01T13:28:28;6.80;99.90
13052;DHT22;6592;47.484;9.726;2023-02-01T13:31:17;6.80;99.90
13052;DHT22;6592;47.484;9.726;2023-02-01T13:34:06;6.80;99.90
13052;DHT22;6592;47.484;9.726;2023-02-01T13:37:01;6.90;99.90
13052;DHT22;6592;47.484;9.726;2023-02-01T13:39:43;6.90;99.90
13052;DHT22;6592;47.484;9.726;2023-02-01T13:42:17;6.90;99.90
13052;DHT22;6592;47.484;9.726;2023-02-01T13:44:50;6.90;99.90
13052;DHT22;6592;47.484;9.726;2023-02-01T13:47:28;6.90;99.90
13052;DHT22;6592;47.484;9.726;2023-02-01T13:50:01;6.90;99.90
13052;DHT22;6592;47.484;9.726;2023-02-01T13:52:38;6.90;99.90
13052;DHT22;6592;47.484;9.726;2023-02-01T13:55:26;6.90;99.90
13052;DHT22;6592;47.484;9.726;2023-02-01T13:58:13;7.00;99.90
13052;DHT22;6592;47.484;9.726;2023-02-01T14:00:44;7.00;99.90
13052;DHT22;6592;47.484;9.726;2023-02-01T14:03:17;7.00;99.90
13052;DHT22;6592;47.484;9.726;2023-02-01T14:06:18;7.00;99.90
13052;DHT22;6592;47.484;9.726;2023-02-01T14:09:32;7.00;99.90
13052;DHT22;6592;47.484;9.726;2023-02-01T14:15:21;7.00;99.90
13052;DHT22;6592;47.484;9.726;2023-02-01T14:17:51;7.00;99.90
13052;DHT22;6592;47.484;9.726;2023-02-01T14:20:45;7.00;99.90
13052;DHT22;6592;47.484;9.726;2023-02-01T14:23:19;7.00;99.90
13052;DHT22;6592;47.484;9.726;2023-02-01T14:28:52;7.00;99.90
13052;DHT22;6592;47.484;9.726;2023-02-01T14:31:47;7.00;99.90
13052;DHT22;6592;47.484;9.726;2023-02-01T14:34:29;7.00;99.90
13052;DHT22;6592;47.484;9.726;2023-02-01T14:36:59;7.10;99.90
13052;DHT22;6592;47.484;9.726;2023-02-01T14:39:32;7.00;99.90
13052;DHT22;6592;47.484;9.726;2023-02-01T14:42:04;7.00;99.90
13052;DHT22;6592;47.484;9.726;2023-02-01T14:44:34;7.00;99.90
13052;DHT22;6592;47.484;9.726;2023-02-01T14:47:30;7.00;99.90
13052;DHT22;6592;47.484;9.726;2023-02-01T14:50:19;7.10;99.90
13052;DHT22;6592;47.484;9.726;2023-02-01T14:52:51;7.10;99.90
13052;DHT22;6592;47.484;9.726;2023-02-01T14:55:30;7.10;99.90
13052;DHT22;6592;47.484;9.726;2023-02-01T14:58:02;7.10;99.90
13052;DHT22;6592;47.484;9.726;2023-02-01T15:00:32;7.20;99.90
13052;DHT22;6592;47.484;9.726;2023-02-01T15:03:25;7.20;99.90
13052;DHT22;6592;47.484;9.726;2023-02-01T15:06:01;7.10;99.90
13052;DHT22;6592;47.484;9.726;2023-02-01T15:08:35;7.10;99.90
13052;DHT22;6592;47.484;9.726;2023-02-01T15:11:11;7.00;99.90
13052;DHT22;6592;47.484;9.726;2023-02-01T15:13:47;7.00;99.90
13052;DHT22;6592;47.484;9.726;2023-02-01T15:16:18;6.90;99.90
13052;DHT22;6592;47.484;9.726;2023-02-01T15:18:46;6.80;99.90
13052;DHT22;6592;47.484;9.726;2023-02-01T15:21:18;6.80;99.90
13052;DHT22;6592;47.484;9.726;2023-02-01T15:24:11;6.70;99.90
13052;DHT22;6592;47.484;9.726;2023-02-01T15:26:39;6.70;99.90
13052;DHT22;6592;47.484;9.726;2023-02-01T15:29:12;6.70;99.90
13052;DHT22;6592;47.484;9.726;2023-02-01T15:31:43;6.70;99.90
13052;DHT22;6592;47.484;9.726;2023-02-01T15:34:12;6.70;99.90
13052;DHT22;6592;47.484;9.726;2023-02-01T15:36:43;6.70;99.90
13052;DHT22;6592;47.484;9.726;2023-02-01T15:39:28;6.60;99.90
13052;DHT22;6592;47.484;9.726;2023-02-01T15:42:00;6.60;99.90
13052;DHT22;6592;47.484;9.726;2023-02-01T15:44:32;6.60;99.90
13052;DHT22;6592;47.484;9.726;2023-02-01T15:47:07;6.60;99.90
13052;DHT22;6592;47.484;9.726;2023-02-01T15:49:38;6.60;99.90
13052;DHT22;6592;47.484;9.726;2023-02-01T15:52:21;6.60;99.90
13052;DHT22;6592;47.484;9.726;2023-02-01T15:54:53;6.60;99.90
13052;DHT22;6592;47.484;9.726;2023-02-01T15:57:24;6.60;99.90
13052;DHT22;6592;47.484;9.726;2023-02-01T15:59:58;6.50;99.90
13052;DHT22;6592;47.484;9.726;2023-02-01T16:02:33;6.50;99.90
13052;DHT22;6592;47.484;9.726;2023-02-01T16:05:03;6.50;99.90
13052;DHT22;6592;47.484;9.726;2023-02-01T16:07:34;6.50;99.90
13052;DHT22;6592;47.484;9.726;2023-02-01T16:10:20;6.50;99.90
13052;DHT22;6592;47.484;9.726;2023-02-01T16:12:50;6.50;99.90
13052;DHT22;6592;47.484;9.726;2023-02-01T16:15:21;6.50;99.90
13052;DHT22;6592;47.484;9.726;2023-02-01T16:17:49;6.50;99.90
13052;DHT22;6592;47.484;9.726;2023-02-01T16:20:18;6.50;99.90
13052;DHT22;6592;47.484;9.726;2023-02-01T16:22:48;6.40;99.90
13052;DHT22;6592;47.484;9.726;2023-02-01T16:25:16;6.50;99.90
13052;DHT22;6592;47.484;9.726;2023-02-01T16:27:44;6.40;99.90
13052;DHT22;6592;47.484;9.726;2023-02-01T16:30:13;6.40;99.90
13052;DHT22;6592;47.484;9.726;2023-02-01T16:32:41;6.50;99.90
13052;DHT22;6592;47.484;9.726;2023-02-01T16:35:14;6.50;99.90
13052;DHT22;6592;47.484;9.726;2023-02-01T16:37:45;6.40;99.90
13052;DHT22;6592;47.484;9.726;2023-02-01T16:40:16;6.40;99.90
13052;DHT22;6592;47.484;9.726;2023-02-01T16:42:46;6.40;99.90
13052;DHT22;6592;47.484;9.726;2023-02-01T16:45:15;6.40;99.90
13052;DHT22;6592;47.484;9.726;2023-02-01T16:47:48;6.40;99.90
13052;DHT22;6592;47.484;9.726;2023-02-01T16:50:20;6.40;99.90
13052;DHT22;6592;47.484;9.726;2023-02-01T16:52:50;6.40;99.90
13052;DHT22;6592;47.484;9.726;2023-02-01T16:55:21;6.40;99.90
13052;DHT22;6592;47.484;9.726;2023-02-01T16:57:50;6.30;99.90
13052;DHT22;6592;47.484;9.726;2023-02-01T17:00:19;6.30;99.90
13052;DHT22;6592;47.484;9.726;2023-02-01T17:02:52;6.30;99.90